sensor_id;sensor_type;location;lat;lon;timestamp;P1;durP1;ratioP1;P2;durP2;ratioP2
59854;SDS011;45732;52.850;6.896;2022-07-26T00:01:18;14.80;;;3.65;;
59854;SDS011;45732;52.850;6.896;2022-07-26T00:03:45;12.45;;;2.83;;
59854;SDS011;45732;52.850;6.896;2022-07-26T00:06:11;15.38;;;3.30;;
59854;SDS011;45732;52.850;6.896;2022-07-26T00:08:37;13.65;;;3.08;;
59854;SDS011;45732;52.850;6.896;2022-07-26T00:11:03;15.60;;;3.40;;
59854;SDS011;45732;52.850;6.896;2022-07-26T00:13:29;14.93;;;3.08;;
59854;SDS011;45732;52.850;6.896;2022-07-26T00:15:56;14.23;;;3.20;;
59854;SDS011;45732;52.850;6.896;2022-07-26T00:18:21;12.65;;;3.30;;
59854;SDS011;45732;52.850;6.896;2022-07-26T00:20:47;13.32;;;3.10;;
59854;SDS011;45732;52.850;6.896;2022-07-26T00:23:13;17.05;;;3.47;;
59854;SDS011;45732;52.850;6.896;2022-07-26T00:25:39;13.23;;;3.13;;
59854;SDS011;45732;52.850;6.896;2022-07-26T00:28:06;15.63;;;3.22;;
59854;SDS011;45732;52.850;6.896;2022-07-26T00:30:32;15.73;;;3.30;;
59854;SDS011;45732;52.850;6.896;2022-07-26T00:32:58;14.38;;;2.65;;
59854;SDS011;45732;52.850;6.896;2022-07-26T00:35:24;16.88;;;3.85;;
59854;SDS011;45732;52.850;6.896;2022-07-26T00:37:50;15.48;;;3.42;;
59854;SDS011;45732;52.850;6.896;2022-07-26T00:40:16;15.32;;;3.65;;
59854;SDS011;45732;52.850;6.896;2022-07-26T00:42:42;14.63;;;3.35;;
59854;SDS011;45732;52.850;6.896;2022-07-26T00:45:08;13.68;;;3.15;;
59854;SDS011;45732;52.850;6.896;2022-07-26T00:47:35;15.23;;;3.70;;
59854;SDS011;45732;52.850;6.896;2022-07-26T00:50:03;14.35;;;3.05;;
59854;SDS011;45732;52.850;6.896;2022-07-26T00:52:30;15.57;;;3.83;;
59854;SDS011;45732;52.850;6.896;2022-07-26T00:54:55;14.85;;;3.70;;
59854;SDS011;45732;52.850;6.896;2022-07-26T00:57:22;16.33;;;3.85;;
59854;SDS011;45732;52.850;6.896;2022-07-26T00:59:48;17.35;;;3.92;;
59854;SDS011;45732;52.850;6.896;2022-07-26T01:02:14;16.23;;;3.72;;
59854;SDS011;45732;52.850;6.896;2022-07-26T01:04:40;16.65;;;3.75;;
59854;SDS011;45732;52.850;6.896;2022-07-26T01:07:08;14.50;;;3.03;;
59854;SDS011;45732;52.850;6.896;2022-07-26T01:09:35;15.70;;;3.72;;
59854;SDS011;45732;52.850;6.896;2022-07-26T01:12:02;16.20;;;3.63;;
59854;SDS011;45732;52.850;6.896;2022-07-26T01:14:28;14.82;;;3.92;;
59854;SDS011;45732;52.850;6.896;2022-07-26T01:16:54;14.85;;;3.33;;
59854;SDS011;45732;52.850;6.896;2022-07-26T01:19:20;16.67;;;3.55;;
59854;SDS011;45732;52.850;6.896;2022-07-26T01:21:46;13.02;;;3.53;;
59854;SDS011;45732;52.850;6.896;2022-07-26T01:24:13;15.05;;;3.90;;
59854;SDS011;45732;52.850;6.896;2022-07-26T01:26:39;16.33;;;4.03;;
59854;SDS011;45732;52.850;6.896;2022-07-26T01:29:05;17.10;;;4.30;;
59854;SDS011;45732;52.850;6.896;2022-07-26T01:31:31;18.13;;;3.97;;
59854;SDS011;45732;52.850;6.896;2022-07-26T01:33:57;16.40;;;3.95;;
59854;SDS011;45732;52.850;6.896;2022-07-26T01:36:22;20.77;;;3.88;;
59854;SDS011;45732;52.850;6.896;2022-07-26T01:38:48;13.05;;;3.90;;
59854;SDS011;45732;52.850;6.896;2022-07-26T01:41:14;15.85;;;4.10;;
59854;SDS011;45732;52.850;6.896;2022-07-26T01:43:40;17.60;;;4.40;;
59854;SDS011;45732;52.850;6.896;2022-07-26T01:46:06;17.38;;;4.57;;
59854;SDS011;45732;52.850;6.896;2022-07-26T01:48:33;13.75;;;3.60;;
59854;SDS011;45732;52.850;6.896;2022-07-26T01:50:59;16.23;;;4.00;;
59854;SDS011;45732;52.850;6.896;2022-07-26T01:53:24;12.93;;;3.42;;
59854;SDS011;45732;52.850;6.896;2022-07-26T01:55:50;15.85;;;4.07;;
59854;SDS011;45732;52.850;6.896;2022-07-26T01:58:16;15.82;;;3.60;;
59854;SDS011;45732;52.850;6.896;2022-07-26T02:00:42;15.60;;;3.83;;
59854;SDS011;45732;52.850;6.896;2022-07-26T02:03:08;16.33;;;4.07;;
59854;SDS011;45732;52.850;6.896;2022-07-26T02:05:34;16.77;;;3.90;;
59854;SDS011;45732;52.850;6.896;2022-07-26T02:08:00;15.13;;;4.45;;
59854;SDS011;45732;52.850;6.896;2022-07-26T02:10:25;15.15;;;4.13;;
59854;SDS011;45732;52.850;6.896;2022-07-26T02:13:12;21.80;;;4.80;;
59854;SDS011;45732;52.850;6.896;2022-07-26T02:15:38;16.88;;;5.00;;
59854;SDS011;45732;52.850;6.896;2022-07-26T02:18:04;16.80;;;4.13;;
59854;SDS011;45732;52.850;6.896;2022-07-26T02:20:30;18.10;;;4.32;;
59854;SDS011;45732;52.850;6.896;2022-07-26T02:22:57;13.73;;;4.38;;
59854;SDS011;45732;52.850;6.896;2022-07-26T02:25:26;14.15;;;4.05;;
59854;SDS011;45732;52.850;6.896;2022-07-26T02:27:52;12.32;;;4.05;;
59854;SDS011;45732;52.850;6.896;2022-07-26T02:30:18;14.68;;;4.22;;
59854;SDS011;45732;52.850;6.896;2022-07-26T02:32:44;16.55;;;4.85;;
59854;SDS011;45732;52.850;6.896;2022-07-26T02:35:09;20.50;;;5.15;;
59854;SDS011;45732;52.850;6.896;2022-07-26T02:37:36;14.88;;;3.97;;
59854;SDS011;45732;52.850;6.896;2022-07-26T02:40:04;15.38;;;4.40;;
59854;SDS011;45732;52.850;6.896;2022-07-26T02:42:31;18.90;;;4.95;;
59854;SDS011;45732;52.850;6.896;2022-07-26T02:44:57;18.50;;;4.93;;
59854;SDS011;45732;52.850;6.896;2022-07-26T02:47:22;17.65;;;4.88;;
59854;SDS011;45732;52.850;6.896;2022-07-26T02:49:48;17.80;;;5.13;;
59854;SDS011;45732;52.850;6.896;2022-07-26T02:52:14;18.15;;;4.57;;
59854;SDS011;45732;52.850;6.896;2022-07-26T02:54:39;21.13;;;5.35;;
59854;SDS011;45732;52.850;6.896;2022-07-26T02:57:05;17.08;;;5.43;;
59854;SDS011;45732;52.850;6.896;2022-07-26T02:59:31;18.15;;;5.30;;
59854;SDS011;45732;52.850;6.896;2022-07-26T03:01:57;19.23;;;5.07;;
59854;SDS011;45732;52.850;6.896;2022-07-26T03:04:22;16.85;;;4.93;;
59854;SDS011;45732;52.850;6.896;2022-07-26T03:06:48;18.08;;;4.97;;
59854;SDS011;45732;52.850;6.896;2022-07-26T03:09:14;14.63;;;4.78;;
59854;SDS011;45732;52.850;6.896;2022-07-26T03:11:40;14.85;;;4.97;;
59854;SDS011;45732;52.850;6.896;2022-07-26T03:14:06;17.95;;;4.63;;
59854;SDS011;45732;52.850;6.896;2022-07-26T03:16:31;17.48;;;4.82;;
59854;SDS011;45732;52.850;6.896;2022-07-26T03:18:58;15.20;;;5.00;;
59854;SDS011;45732;52.850;6.896;2022-07-26T03:21:24;14.65;;;4.32;;
59854;SDS011;45732;52.850;6.896;2022-07-26T03:23:50;18.60;;;4.88;;
59854;SDS011;45732;52.850;6.896;2022-07-26T03:26:16;13.40;;;4.25;;
59854;SDS011;45732;52.850;6.896;2022-07-26T03:28:41;19.00;;;4.93;;
59854;SDS011;45732;52.850;6.896;2022-07-26T03:31:08;16.77;;;4.38;;
59854;SDS011;45732;52.850;6.896;2022-07-26T03:33:35;16.13;;;4.90;;
59854;SDS011;45732;52.850;6.896;2022-07-26T03:36:01;13.45;;;4.30;;
59854;SDS011;45732;52.850;6.896;2022-07-26T03:38:27;13.93;;;4.65;;
59854;SDS011;45732;52.850;6.896;2022-07-26T03:40:52;16.23;;;4.40;;
59854;SDS011;45732;52.850;6.896;2022-07-26T03:43:18;13.43;;;4.00;;
59854;SDS011;45732;52.850;6.896;2022-07-26T03:45:44;12.40;;;3.80;;
59854;SDS011;45732;52.850;6.896;2022-07-26T03:48:10;12.60;;;3.92;;
59854;SDS011;45732;52.850;6.896;2022-07-26T03:50:35;13.75;;;3.85;;
59854;SDS011;45732;52.850;6.896;2022-07-26T03:53:01;14.32;;;4.18;;
59854;SDS011;45732;52.850;6.896;2022-07-26T03:55:27;11.80;;;4.18;;
59854;SDS011;45732;52.850;6.896;2022-07-26T03:58:11;15.35;;;3.97;;
59854;SDS011;45732;52.850;6.896;2022-07-26T04:00:37;13.60;;;3.80;;
59854;SDS011;45732;52.850;6.896;2022-07-26T04:03:03;14.13;;;3.85;;
59854;SDS011;45732;52.850;6.896;2022-07-26T04:05:28;8.27;;;2.80;;
59854;SDS011;45732;52.850;6.896;2022-07-26T04:07:54;8.88;;;3.10;;
59854;SDS011;45732;52.850;6.896;2022-07-26T04:10:20;8.93;;;2.88;;
59854;SDS011;45732;52.850;6.896;2022-07-26T04:12:47;10.05;;;2.63;;
59854;SDS011;45732;52.850;6.896;2022-07-26T04:15:14;9.00;;;2.13;;
59854;SDS011;45732;52.850;6.896;2022-07-26T04:17:41;5.35;;;1.80;;
59854;SDS011;45732;52.850;6.896;2022-07-26T04:20:08;8.15;;;2.30;;
59854;SDS011;45732;52.850;6.896;2022-07-26T04:22:35;10.13;;;2.50;;
59854;SDS011;45732;52.850;6.896;2022-07-26T04:25:02;8.57;;;2.30;;
59854;SDS011;45732;52.850;6.896;2022-07-26T04:27:30;7.88;;;2.00;;
59854;SDS011;45732;52.850;6.896;2022-07-26T04:29:56;7.93;;;2.10;;
59854;SDS011;45732;52.850;6.896;2022-07-26T04:32:21;8.60;;;1.90;;
59854;SDS011;45732;52.850;6.896;2022-07-26T04:34:47;6.20;;;1.70;;
59854;SDS011;45732;52.850;6.896;2022-07-26T04:37:13;6.75;;;2.35;;
59854;SDS011;45732;52.850;6.896;2022-07-26T04:39:39;7.95;;;2.28;;
59854;SDS011;45732;52.850;6.896;2022-07-26T04:42:05;7.53;;;1.95;;
59854;SDS011;45732;52.850;6.896;2022-07-26T04:44:30;8.85;;;2.38;;
59854;SDS011;45732;52.850;6.896;2022-07-26T04:46:56;7.68;;;2.17;;
59854;SDS011;45732;52.850;6.896;2022-07-26T04:49:22;8.30;;;2.30;;
59854;SDS011;45732;52.850;6.896;2022-07-26T04:51:47;6.55;;;1.80;;
59854;SDS011;45732;52.850;6.896;2022-07-26T04:54:13;6.90;;;1.83;;
59854;SDS011;45732;52.850;6.896;2022-07-26T04:56:44;9.75;;;2.22;;
59854;SDS011;45732;52.850;6.896;2022-07-26T04:59:10;6.75;;;1.80;;
59854;SDS011;45732;52.850;6.896;2022-07-26T05:01:36;8.10;;;2.00;;
59854;SDS011;45732;52.850;6.896;2022-07-26T05:04:02;9.82;;;2.08;;
59854;SDS011;45732;52.850;6.896;2022-07-26T05:06:27;8.40;;;2.15;;
59854;SDS011;45732;52.850;6.896;2022-07-26T05:08:53;8.40;;;2.55;;
59854;SDS011;45732;52.850;6.896;2022-07-26T05:11:19;8.18;;;2.22;;
59854;SDS011;45732;52.850;6.896;2022-07-26T05:13:45;7.82;;;1.98;;
59854;SDS011;45732;52.850;6.896;2022-07-26T05:16:10;6.57;;;1.80;;
59854;SDS011;45732;52.850;6.896;2022-07-26T05:18:36;9.80;;;2.25;;
59854;SDS011;45732;52.850;6.896;2022-07-26T05:21:02;5.45;;;1.83;;
59854;SDS011;45732;52.850;6.896;2022-07-26T05:23:27;8.07;;;2.13;;
59854;SDS011;45732;52.850;6.896;2022-07-26T05:25:53;7.70;;;1.80;;
59854;SDS011;45732;52.850;6.896;2022-07-26T05:28:20;7.90;;;1.90;;
59854;SDS011;45732;52.850;6.896;2022-07-26T05:30:45;8.10;;;1.80;;
59854;SDS011;45732;52.850;6.896;2022-07-26T05:33:11;8.63;;;1.73;;
59854;SDS011;45732;52.850;6.896;2022-07-26T05:35:37;7.55;;;1.63;;
59854;SDS011;45732;52.850;6.896;2022-07-26T05:38:03;9.93;;;1.77;;
59854;SDS011;45732;52.850;6.896;2022-07-26T05:40:28;8.38;;;2.15;;
59854;SDS011;45732;52.850;6.896;2022-07-26T05:42:54;7.35;;;1.75;;
59854;SDS011;45732;52.850;6.896;2022-07-26T05:45:20;8.43;;;1.70;;
59854;SDS011;45732;52.850;6.896;2022-07-26T05:47:48;6.05;;;1.55;;
59854;SDS011;45732;52.850;6.896;2022-07-26T05:50:14;6.85;;;1.52;;
59854;SDS011;45732;52.850;6.896;2022-07-26T05:52:40;8.38;;;1.85;;
59854;SDS011;45732;52.850;6.896;2022-07-26T05:55:06;10.50;;;2.10;;
59854;SDS011;45732;52.850;6.896;2022-07-26T05:57:32;5.30;;;1.50;;
59854;SDS011;45732;52.850;6.896;2022-07-26T06:00:01;6.78;;;1.45;;
59854;SDS011;45732;52.850;6.896;2022-07-26T06:02:28;8.45;;;1.52;;
59854;SDS011;45732;52.850;6.896;2022-07-26T06:04:53;6.70;;;1.33;;
59854;SDS011;45732;52.850;6.896;2022-07-26T06:07:19;7.10;;;1.27;;
59854;SDS011;45732;52.850;6.896;2022-07-26T06:09:45;5.50;;;1.33;;
59854;SDS011;45732;52.850;6.896;2022-07-26T06:12:11;5.35;;;1.08;;
59854;SDS011;45732;52.850;6.896;2022-07-26T06:14:36;9.43;;;1.00;;
59854;SDS011;45732;52.850;6.896;2022-07-26T06:17:02;5.78;;;1.10;;
59854;SDS011;45732;52.850;6.896;2022-07-26T06:19:28;5.82;;;1.08;;
59854;SDS011;45732;52.850;6.896;2022-07-26T06:21:54;5.07;;;1.05;;
59854;SDS011;45732;52.850;6.896;2022-07-26T06:24:20;4.60;;;1.15;;
59854;SDS011;45732;52.850;6.896;2022-07-26T06:26:46;6.53;;;1.10;;
59854;SDS011;45732;52.850;6.896;2022-07-26T06:29:14;3.95;;;0.88;;
59854;SDS011;45732;52.850;6.896;2022-07-26T06:31:40;5.28;;;1.00;;
59854;SDS011;45732;52.850;6.896;2022-07-26T06:34:05;3.45;;;0.75;;
59854;SDS011;45732;52.850;6.896;2022-07-26T06:36:31;6.65;;;1.17;;
59854;SDS011;45732;52.850;6.896;2022-07-26T06:38:57;2.80;;;0.65;;
59854;SDS011;45732;52.850;6.896;2022-07-26T06:41:23;5.32;;;1.08;;
59854;SDS011;45732;52.850;6.896;2022-07-26T06:43:49;5.22;;;1.60;;
59854;SDS011;45732;52.850;6.896;2022-07-26T06:46:14;4.35;;;0.93;;
59854;SDS011;45732;52.850;6.896;2022-07-26T06:48:41;4.25;;;0.90;;
59854;SDS011;45732;52.850;6.896;2022-07-26T06:51:06;1.98;;;0.63;;
59854;SDS011;45732;52.850;6.896;2022-07-26T06:53:34;4.72;;;1.00;;
59854;SDS011;45732;52.850;6.896;2022-07-26T06:56:00;3.28;;;0.68;;
59854;SDS011;45732;52.850;6.896;2022-07-26T06:58:26;2.70;;;0.60;;
59854;SDS011;45732;52.850;6.896;2022-07-26T07:00:52;2.78;;;0.60;;
59854;SDS011;45732;52.850;6.896;2022-07-26T07:03:17;4.70;;;1.00;;
59854;SDS011;45732;52.850;6.896;2022-07-26T07:05:43;2.83;;;0.75;;
59854;SDS011;45732;52.850;6.896;2022-07-26T07:08:09;4.97;;;0.80;;
59854;SDS011;45732;52.850;6.896;2022-07-26T07:10:35;4.05;;;0.80;;
59854;SDS011;45732;52.850;6.896;2022-07-26T07:13:00;6.00;;;1.17;;
59854;SDS011;45732;52.850;6.896;2022-07-26T07:15:26;5.40;;;1.02;;
59854;SDS011;45732;52.850;6.896;2022-07-26T07:17:52;5.03;;;0.90;;
59854;SDS011;45732;52.850;6.896;2022-07-26T07:20:18;5.72;;;0.82;;
59854;SDS011;45732;52.850;6.896;2022-07-26T07:22:43;5.90;;;0.95;;
59854;SDS011;45732;52.850;6.896;2022-07-26T07:25:09;6.22;;;1.67;;
59854;SDS011;45732;52.850;6.896;2022-07-26T07:27:35;4.72;;;1.00;;
59854;SDS011;45732;52.850;6.896;2022-07-26T07:30:01;3.75;;;0.80;;
59854;SDS011;45732;52.850;6.896;2022-07-26T07:32:28;5.28;;;0.95;;
59854;SDS011;45732;52.850;6.896;2022-07-26T07:34:54;6.57;;;1.02;;
59854;SDS011;45732;52.850;6.896;2022-07-26T07:37:19;4.72;;;1.15;;
59854;SDS011;45732;52.850;6.896;2022-07-26T07:39:45;5.50;;;1.00;;
59854;SDS011;45732;52.850;6.896;2022-07-26T07:42:11;5.57;;;1.08;;
59854;SDS011;45732;52.850;6.896;2022-07-26T07:44:37;5.40;;;0.90;;
59854;SDS011;45732;52.850;6.896;2022-07-26T07:47:02;5.30;;;0.93;;
59854;SDS011;45732;52.850;6.896;2022-07-26T07:49:28;5.65;;;1.00;;
59854;SDS011;45732;52.850;6.896;2022-07-26T07:51:54;4.85;;;0.80;;
59854;SDS011;45732;52.850;6.896;2022-07-26T07:54:19;5.78;;;1.10;;
59854;SDS011;45732;52.850;6.896;2022-07-26T07:56:45;4.07;;;0.80;;
59854;SDS011;45732;52.850;6.896;2022-07-26T07:59:11;8.48;;;1.45;;
59854;SDS011;45732;52.850;6.896;2022-07-26T08:01:36;5.78;;;1.02;;
59854;SDS011;45732;52.850;6.896;2022-07-26T08:04:02;6.97;;;1.10;;
59854;SDS011;45732;52.850;6.896;2022-07-26T08:06:28;5.15;;;1.00;;
59854;SDS011;45732;52.850;6.896;2022-07-26T08:08:54;4.43;;;0.80;;
59854;SDS011;45732;52.850;6.896;2022-07-26T08:11:19;5.38;;;0.80;;
59854;SDS011;45732;52.850;6.896;2022-07-26T08:13:45;5.32;;;1.20;;
59854;SDS011;45732;52.850;6.896;2022-07-26T08:16:11;6.65;;;1.10;;
59854;SDS011;45732;52.850;6.896;2022-07-26T08:18:36;4.18;;;0.80;;
59854;SDS011;45732;52.850;6.896;2022-07-26T08:21:02;7.78;;;0.93;;
59854;SDS011;45732;52.850;6.896;2022-07-26T08:23:28;5.75;;;1.05;;
59854;SDS011;45732;52.850;6.896;2022-07-26T08:25:53;4.68;;;0.80;;
59854;SDS011;45732;52.850;6.896;2022-07-26T08:28:20;6.63;;;0.90;;
59854;SDS011;45732;52.850;6.896;2022-07-26T08:30:45;4.63;;;0.95;;
59854;SDS011;45732;52.850;6.896;2022-07-26T08:33:11;7.80;;;1.55;;
59854;SDS011;45732;52.850;6.896;2022-07-26T08:35:37;5.97;;;0.80;;
59854;SDS011;45732;52.850;6.896;2022-07-26T08:38:02;6.88;;;1.27;;
59854;SDS011;45732;52.850;6.896;2022-07-26T08:40:28;7.03;;;1.00;;
59854;SDS011;45732;52.850;6.896;2022-07-26T08:42:55;6.03;;;1.08;;
59854;SDS011;45732;52.850;6.896;2022-07-26T08:45:21;4.32;;;0.80;;
59854;SDS011;45732;52.850;6.896;2022-07-26T08:47:48;3.63;;;0.88;;
59854;SDS011;45732;52.850;6.896;2022-07-26T08:50:14;4.95;;;0.80;;
59854;SDS011;45732;52.850;6.896;2022-07-26T08:52:40;6.65;;;1.25;;
59854;SDS011;45732;52.850;6.896;2022-07-26T08:55:07;4.75;;;0.90;;
59854;SDS011;45732;52.850;6.896;2022-07-26T08:57:34;6.50;;;1.10;;
59854;SDS011;45732;52.850;6.896;2022-07-26T09:00:12;6.45;;;1.40;;
59854;SDS011;45732;52.850;6.896;2022-07-26T09:02:43;7.03;;;1.63;;
59854;SDS011;45732;52.850;6.896;2022-07-26T09:05:09;4.57;;;0.90;;
59854;SDS011;45732;52.850;6.896;2022-07-26T09:07:35;6.00;;;1.00;;
59854;SDS011;45732;52.850;6.896;2022-07-26T09:10:05;5.75;;;1.00;;
59854;SDS011;45732;52.850;6.896;2022-07-26T09:12:32;7.68;;;1.30;;
59854;SDS011;45732;52.850;6.896;2022-07-26T09:14:58;8.00;;;1.58;;
59854;SDS011;45732;52.850;6.896;2022-07-26T09:17:36;6.88;;;1.38;;
59854;SDS011;45732;52.850;6.896;2022-07-26T09:22:33;5.18;;;1.02;;
59854;SDS011;45732;52.850;6.896;2022-07-26T09:25:00;8.40;;;1.30;;
59854;SDS011;45732;52.850;6.896;2022-07-26T09:27:32;4.30;;;1.02;;
59854;SDS011;45732;52.850;6.896;2022-07-26T09:30:05;6.20;;;1.02;;
59854;SDS011;45732;52.850;6.896;2022-07-26T09:32:32;6.72;;;1.05;;
59854;SDS011;45732;52.850;6.896;2022-07-26T09:35:13;6.45;;;1.17;;
59854;SDS011;45732;52.850;6.896;2022-07-26T09:37:45;6.57;;;1.20;;
59854;SDS011;45732;52.850;6.896;2022-07-26T09:40:13;5.15;;;0.82;;
59854;SDS011;45732;52.850;6.896;2022-07-26T09:42:53;6.38;;;1.00;;
59854;SDS011;45732;52.850;6.896;2022-07-26T09:45:19;5.85;;;1.38;;
59854;SDS011;45732;52.850;6.896;2022-07-26T09:47:45;6.68;;;1.17;;
59854;SDS011;45732;52.850;6.896;2022-07-26T09:50:21;5.18;;;0.90;;
59854;SDS011;45732;52.850;6.896;2022-07-26T09:53:08;4.47;;;0.90;;
59854;SDS011;45732;52.850;6.896;2022-07-26T09:55:56;7.70;;;1.20;;
59854;SDS011;45732;52.850;6.896;2022-07-26T09:58:21;4.18;;;0.90;;
59854;SDS011;45732;52.850;6.896;2022-07-26T10:00:48;5.63;;;1.13;;
59854;SDS011;45732;52.850;6.896;2022-07-26T10:03:14;6.55;;;1.40;;
59854;SDS011;45732;52.850;6.896;2022-07-26T10:05:40;4.38;;;1.15;;
59854;SDS011;45732;52.850;6.896;2022-07-26T10:08:06;5.03;;;1.00;;
59854;SDS011;45732;52.850;6.896;2022-07-26T10:10:33;6.03;;;1.15;;
59854;SDS011;45732;52.850;6.896;2022-07-26T10:13:06;5.32;;;1.00;;
59854;SDS011;45732;52.850;6.896;2022-07-26T10:18:10;5.18;;;1.10;;
59854;SDS011;45732;52.850;6.896;2022-07-26T10:20:54;6.13;;;1.25;;
59854;SDS011;45732;52.850;6.896;2022-07-26T10:23:40;8.05;;;1.48;;
59854;SDS011;45732;52.850;6.896;2022-07-26T10:26:11;6.07;;;1.23;;
59854;SDS011;45732;52.850;6.896;2022-07-26T10:29:02;7.65;;;1.52;;
59854;SDS011;45732;52.850;6.896;2022-07-26T10:31:43;5.95;;;1.25;;
59854;SDS011;45732;52.850;6.896;2022-07-26T10:34:30;7.32;;;1.33;;
59854;SDS011;45732;52.850;6.896;2022-07-26T10:36:57;8.73;;;1.42;;
59854;SDS011;45732;52.850;6.896;2022-07-26T10:39:24;7.18;;;1.50;;
59854;SDS011;45732;52.850;6.896;2022-07-26T10:42:00;5.57;;;1.25;;
59854;SDS011;45732;52.850;6.896;2022-07-26T10:44:28;9.82;;;1.70;;
59854;SDS011;45732;52.850;6.896;2022-07-26T10:52:24;6.45;;;1.38;;
59854;SDS011;45732;52.850;6.896;2022-07-26T10:57:27;9.60;;;1.80;;
59854;SDS011;45732;52.850;6.896;2022-07-26T10:59:55;5.88;;;1.60;;
59854;SDS011;45732;52.850;6.896;2022-07-26T11:02:28;10.02;;;2.03;;
59854;SDS011;45732;52.850;6.896;2022-07-26T11:05:00;10.65;;;2.25;;
59854;SDS011;45732;52.850;6.896;2022-07-26T11:07:53;7.25;;;1.45;;
59854;SDS011;45732;52.850;6.896;2022-07-26T11:10:36;9.50;;;1.80;;
59854;SDS011;45732;52.850;6.896;2022-07-26T11:13:10;7.18;;;1.67;;
59854;SDS011;45732;52.850;6.896;2022-07-26T11:15:48;10.55;;;2.35;;
59854;SDS011;45732;52.850;6.896;2022-07-26T11:18:16;10.02;;;2.03;;
59854;SDS011;45732;52.850;6.896;2022-07-26T11:20:45;12.50;;;2.25;;
59854;SDS011;45732;52.850;6.896;2022-07-26T11:23:25;11.65;;;2.42;;
59854;SDS011;45732;52.850;6.896;2022-07-26T11:26:04;11.88;;;2.55;;
59854;SDS011;45732;52.850;6.896;2022-07-26T11:31:20;10.18;;;2.50;;
59854;SDS011;45732;52.850;6.896;2022-07-26T11:33:51;12.75;;;2.38;;
59854;SDS011;45732;52.850;6.896;2022-07-26T11:36:17;9.85;;;2.30;;
59854;SDS011;45732;52.850;6.896;2022-07-26T11:38:55;11.57;;;2.80;;
59854;SDS011;45732;52.850;6.896;2022-07-26T11:41:22;10.05;;;2.47;;
59854;SDS011;45732;52.850;6.896;2022-07-26T11:43:49;8.25;;;2.20;;
59854;SDS011;45732;52.850;6.896;2022-07-26T11:46:17;13.60;;;2.40;;
59854;SDS011;45732;52.850;6.896;2022-07-26T11:48:47;10.50;;;2.20;;
59854;SDS011;45732;52.850;6.896;2022-07-26T11:51:15;8.85;;;1.98;;
59854;SDS011;45732;52.850;6.896;2022-07-26T11:53:42;10.18;;;2.25;;
59854;SDS011;45732;52.850;6.896;2022-07-26T11:56:09;11.90;;;2.25;;
59854;SDS011;45732;52.850;6.896;2022-07-26T11:58:40;10.82;;;1.92;;
59854;SDS011;45732;52.850;6.896;2022-07-26T12:01:07;8.50;;;1.75;;
59854;SDS011;45732;52.850;6.896;2022-07-26T12:03:34;10.02;;;2.58;;
59854;SDS011;45732;52.850;6.896;2022-07-26T12:06:02;8.60;;;2.40;;
59854;SDS011;45732;52.850;6.896;2022-07-26T12:11:17;10.43;;;1.80;;
59854;SDS011;45732;52.850;6.896;2022-07-26T12:14:00;11.10;;;1.98;;
59854;SDS011;45732;52.850;6.896;2022-07-26T12:21:42;9.25;;;2.10;;
59854;SDS011;45732;52.850;6.896;2022-07-26T12:24:14;10.20;;;1.80;;
59854;SDS011;45732;52.850;6.896;2022-07-26T12:29:34;8.40;;;1.70;;
59854;SDS011;45732;52.850;6.896;2022-07-26T12:32:04;9.75;;;1.75;;
59854;SDS011;45732;52.850;6.896;2022-07-26T12:34:56;9.35;;;1.60;;
59854;SDS011;45732;52.850;6.896;2022-07-26T12:37:22;9.20;;;1.60;;
59854;SDS011;45732;52.850;6.896;2022-07-26T12:39:59;7.30;;;1.70;;
59854;SDS011;45732;52.850;6.896;2022-07-26T12:42:27;11.00;;;1.95;;
59854;SDS011;45732;52.850;6.896;2022-07-26T12:44:58;9.83;;;1.77;;
59854;SDS011;45732;52.850;6.896;2022-07-26T12:47:24;9.20;;;1.70;;
59854;SDS011;45732;52.850;6.896;2022-07-26T12:49:51;10.70;;;1.65;;
59854;SDS011;45732;52.850;6.896;2022-07-26T12:52:17;7.57;;;1.63;;
59854;SDS011;45732;52.850;6.896;2022-07-26T12:54:45;8.32;;;1.70;;
59854;SDS011;45732;52.850;6.896;2022-07-26T12:57:12;6.43;;;1.42;;
59854;SDS011;45732;52.850;6.896;2022-07-26T12:59:38;8.90;;;1.60;;
59854;SDS011;45732;52.850;6.896;2022-07-26T13:02:04;6.18;;;1.42;;
59854;SDS011;45732;52.850;6.896;2022-07-26T13:04:31;5.88;;;1.38;;
59854;SDS011;45732;52.850;6.896;2022-07-26T13:06:57;6.47;;;1.63;;
59854;SDS011;45732;52.850;6.896;2022-07-26T13:09:23;5.10;;;1.17;;
59854;SDS011;45732;52.850;6.896;2022-07-26T13:11:49;4.60;;;1.08;;
59854;SDS011;45732;52.850;6.896;2022-07-26T13:14:18;4.32;;;1.33;;
59854;SDS011;45732;52.850;6.896;2022-07-26T13:16:44;5.45;;;1.15;;
59854;SDS011;45732;52.850;6.896;2022-07-26T13:19:09;6.82;;;1.10;;
59854;SDS011;45732;52.850;6.896;2022-07-26T13:21:35;4.93;;;1.20;;
59854;SDS011;45732;52.850;6.896;2022-07-26T13:24:01;6.57;;;1.13;;
59854;SDS011;45732;52.850;6.896;2022-07-26T13:26:26;6.40;;;1.40;;
59854;SDS011;45732;52.850;6.896;2022-07-26T13:28:52;4.35;;;0.80;;
59854;SDS011;45732;52.850;6.896;2022-07-26T13:31:18;5.90;;;1.30;;
59854;SDS011;45732;52.850;6.896;2022-07-26T13:33:44;5.03;;;1.02;;
59854;SDS011;45732;52.850;6.896;2022-07-26T13:36:10;5.68;;;1.25;;
59854;SDS011;45732;52.850;6.896;2022-07-26T13:38:35;6.57;;;1.33;;
59854;SDS011;45732;52.850;6.896;2022-07-26T13:41:01;7.22;;;1.33;;
59854;SDS011;45732;52.850;6.896;2022-07-26T13:43:27;8.27;;;1.42;;
59854;SDS011;45732;52.850;6.896;2022-07-26T13:45:55;5.60;;;1.10;;
59854;SDS011;45732;52.850;6.896;2022-07-26T13:48:21;8.70;;;1.30;;
59854;SDS011;45732;52.850;6.896;2022-07-26T13:50:47;5.50;;;1.30;;
59854;SDS011;45732;52.850;6.896;2022-07-26T13:53:14;5.47;;;1.13;;
59854;SDS011;45732;52.850;6.896;2022-07-26T13:55:40;6.20;;;1.42;;
59854;SDS011;45732;52.850;6.896;2022-07-26T13:58:06;5.43;;;1.20;;
59854;SDS011;45732;52.850;6.896;2022-07-26T14:00:32;5.53;;;1.08;;
59854;SDS011;45732;52.850;6.896;2022-07-26T14:02:57;5.60;;;1.10;;
59854;SDS011;45732;52.850;6.896;2022-07-26T14:05:24;7.03;;;1.10;;
59854;SDS011;45732;52.850;6.896;2022-07-26T14:07:50;5.05;;;1.60;;
59854;SDS011;45732;52.850;6.896;2022-07-26T14:10:16;8.50;;;1.30;;
59854;SDS011;45732;52.850;6.896;2022-07-26T14:12:43;6.95;;;1.30;;
59854;SDS011;45732;52.850;6.896;2022-07-26T14:15:09;7.03;;;1.40;;
59854;SDS011;45732;52.850;6.896;2022-07-26T14:17:35;7.57;;;1.35;;
59854;SDS011;45732;52.850;6.896;2022-07-26T14:20:01;6.07;;;1.20;;
59854;SDS011;45732;52.850;6.896;2022-07-26T14:22:28;6.30;;;1.10;;
59854;SDS011;45732;52.850;6.896;2022-07-26T14:24:54;5.95;;;1.20;;
59854;SDS011;45732;52.850;6.896;2022-07-26T14:27:19;8.65;;;1.40;;
59854;SDS011;45732;52.850;6.896;2022-07-26T14:29:45;7.13;;;1.52;;
59854;SDS011;45732;52.850;6.896;2022-07-26T14:32:11;5.00;;;1.20;;
59854;SDS011;45732;52.850;6.896;2022-07-26T14:34:38;6.47;;;1.30;;
59854;SDS011;45732;52.850;6.896;2022-07-26T14:37:03;6.43;;;1.15;;
59854;SDS011;45732;52.850;6.896;2022-07-26T14:39:29;8.05;;;1.40;;
59854;SDS011;45732;52.850;6.896;2022-07-26T14:41:55;6.32;;;1.30;;
59854;SDS011;45732;52.850;6.896;2022-07-26T14:44:21;8.00;;;1.08;;
59854;SDS011;45732;52.850;6.896;2022-07-26T14:46:46;6.05;;;1.17;;
59854;SDS011;45732;52.850;6.896;2022-07-26T14:49:12;7.00;;;1.50;;
59854;SDS011;45732;52.850;6.896;2022-07-26T14:51:38;6.28;;;1.45;;
59854;SDS011;45732;52.850;6.896;2022-07-26T14:54:04;7.40;;;1.50;;
59854;SDS011;45732;52.850;6.896;2022-07-26T14:56:30;7.65;;;1.85;;
59854;SDS011;45732;52.850;6.896;2022-07-26T14:58:55;7.50;;;1.70;;
59854;SDS011;45732;52.850;6.896;2022-07-26T15:01:21;6.15;;;1.33;;
59854;SDS011;45732;52.850;6.896;2022-07-26T15:03:47;7.93;;;1.63;;
59854;SDS011;45732;52.850;6.896;2022-07-26T15:06:14;6.68;;;1.40;;
59854;SDS011;45732;52.850;6.896;2022-07-26T15:08:40;7.72;;;1.20;;
59854;SDS011;45732;52.850;6.896;2022-07-26T15:11:06;7.97;;;1.42;;